createdAt,value
2023-01-27T00:00:25.158Z,6.39
2023-01-27T00:02:52.244Z,6.36
2023-01-27T00:05:19.053Z,6.46
2023-01-27T00:07:49.911Z,6.52
2023-01-27T00:10:17.934Z,6.44
2023-01-27T00:13:03.299Z,6.38
2023-01-27T00:15:30.830Z,6.38
2023-01-27T00:17:57.712Z,6.48
2023-01-27T00:20:42.950Z,6.52
2023-01-27T00:23:33.216Z,6.43
2023-01-27T00:26:00.588Z,6.32
2023-01-27T00:28:31.243Z,6.22
2023-01-27T00:30:58.673Z,6.32
2023-01-27T00:33:28.774Z,6.28
2023-01-27T00:36:02.807Z,6.37
2023-01-27T00:38:30.784Z,6.25
2023-01-27T00:41:15.591Z,6.27
2023-01-27T00:43:42.427Z,6.09
2023-01-27T00:46:09.128Z,6.23
2023-01-27T00:48:35.963Z,6.27
2023-01-27T00:51:03.215Z,6.25
2023-01-27T00:53:30.391Z,6.09
2023-01-27T00:55:58.281Z,5.90
2023-01-27T00:58:25.735Z,5.97
2023-01-27T01:00:56.388Z,5.80
2023-01-27T01:03:24.111Z,5.73
2023-01-27T01:05:51.383Z,5.74
2023-01-27T01:08:18.384Z,5.84
2023-01-27T01:10:45.486Z,5.85
2023-01-27T01:13:12.295Z,5.88
2023-01-27T01:15:39.782Z,5.80
2023-01-27T01:18:07.139Z,5.90
2023-01-27T01:20:38.467Z,5.92
2023-01-27T01:23:06.125Z,5.84
2023-01-27T01:25:32.887Z,5.82
2023-01-27T01:27:59.649Z,5.75
2023-01-27T01:30:27.536Z,5.87
2023-01-27T01:32:54.812Z,5.73
2023-01-27T01:35:22.468Z,5.65
2023-01-27T01:37:49.106Z,5.91
2023-01-27T01:40:15.787Z,5.91
2023-01-27T01:43:08.894Z,5.89
2023-01-27T01:45:36.707Z,5.99
2023-01-27T01:48:06.989Z,5.93
2023-01-27T01:50:35.255Z,5.93
2023-01-27T01:53:03.313Z,6.09
2023-01-27T01:55:30.617Z,6.17
2023-01-27T01:57:58.555Z,6.18
2023-01-27T02:00:25.360Z,6.02
2023-01-27T02:02:52.301Z,6.10
2023-01-27T02:05:22.193Z,6.08
2023-01-27T02:07:51.887Z,6.12
2023-01-27T02:10:18.496Z,6.12
2023-01-27T02:12:45.542Z,6.04
2023-01-27T02:15:12.701Z,6.08
2023-01-27T02:17:39.531Z,6.16
2023-01-27T02:20:24.562Z,6.08
2023-01-27T02:22:54.829Z,6.08
2023-01-27T02:25:29.429Z,5.97
2023-01-27T02:27:56.316Z,5.97
2023-01-27T02:30:22.996Z,5.86
2023-01-27T02:32:49.701Z,5.87
2023-01-27T02:35:20.403Z,5.94
2023-01-27T02:37:48.369Z,5.82
2023-01-27T02:40:15.483Z,5.87
2023-01-27T02:42:42.240Z,5.94
2023-01-27T02:45:09.173Z,5.87
2023-01-27T02:47:35.857Z,5.71
2023-01-27T02:50:02.514Z,5.77
2023-01-27T02:52:31.046Z,5.88
2023-01-27T02:54:58.440Z,5.71
2023-01-27T02:57:25.488Z,5.67
2023-01-27T03:00:09.794Z,5.59
2023-01-27T03:02:36.522Z,5.63
2023-01-27T03:05:03.262Z,5.67
2023-01-27T03:07:29.955Z,5.72
2023-01-27T03:09:56.676Z,5.68
2023-01-27T03:12:23.550Z,5.65
2023-01-27T03:15:10.877Z,5.71
2023-01-27T03:17:57.215Z,5.63
2023-01-27T03:20:24.960Z,5.63
2023-01-27T03:22:51.540Z,5.67
2023-01-27T03:25:20.912Z,5.42
2023-01-27T03:27:47.851Z,5.44
2023-01-27T03:30:37.514Z,5.45
2023-01-27T03:33:12.630Z,5.41
2023-01-27T03:36:03.562Z,5.33
2023-01-27T03:38:55.180Z,5.32
2023-01-27T03:41:40.153Z,5.21
2023-01-27T03:44:26.284Z,5.36
2023-01-27T03:46:52.945Z,5.28
2023-01-27T03:49:19.531Z,5.22
2023-01-27T03:51:46.327Z,5.20
2023-01-27T03:54:13.053Z,5.31
2023-01-27T03:56:39.708Z,5.40
2023-01-27T03:59:06.379Z,5.28
2023-01-27T04:01:33.190Z,5.34
2023-01-27T04:04:18.296Z,5.43
2023-01-27T04:07:00.881Z,5.29
2023-01-27T04:09:30.418Z,5.30
2023-01-27T04:11:59.104Z,5.32
2023-01-27T04:14:25.949Z,5.36
2023-01-27T04:16:53.872Z,5.41
2023-01-27T04:19:21.053Z,5.42
2023-01-27T04:21:48.052Z,5.34
2023-01-27T04:24:22.783Z,5.30
2023-01-27T04:26:50.988Z,5.48
2023-01-27T04:29:17.952Z,5.61
2023-01-27T04:31:44.775Z,5.66
2023-01-27T04:34:12.077Z,5.63
2023-01-27T04:36:39.157Z,5.64
2023-01-27T04:39:05.872Z,5.49
2023-01-27T04:41:33.205Z,5.56
2023-01-27T04:43:59.901Z,5.43
2023-01-27T04:46:26.543Z,5.49
2023-01-27T04:48:53.918Z,5.56
2023-01-27T04:51:20.611Z,5.71
2023-01-27T04:53:47.463Z,5.67
2023-01-27T04:56:24.631Z,5.55
2023-01-27T04:58:51.403Z,5.71
2023-01-27T05:01:18.465Z,5.69
2023-01-27T05:03:45.144Z,5.59
2023-01-27T05:06:12.272Z,5.82
2023-01-27T05:08:39.116Z,5.89
2023-01-27T05:11:06.011Z,5.83
2023-01-27T05:13:32.824Z,5.79
2023-01-27T05:16:06.796Z,5.73
2023-01-27T05:18:33.519Z,5.69
2023-01-27T05:21:01.369Z,5.72
2023-01-27T05:23:36.854Z,5.65
2023-01-27T05:26:04.578Z,5.66
2023-01-27T05:28:31.660Z,5.52
2023-01-27T05:31:02.032Z,5.48
2023-01-27T05:33:28.688Z,5.46
2023-01-27T05:35:57.911Z,5.41
2023-01-27T05:38:24.601Z,5.46
2023-01-27T05:40:54.572Z,5.23
2023-01-27T05:43:21.206Z,5.42
2023-01-27T05:45:48.166Z,5.46
2023-01-27T05:48:14.864Z,5.55
2023-01-27T05:50:41.512Z,5.61
2023-01-27T05:53:08.229Z,5.59
2023-01-27T05:55:34.834Z,5.60
2023-01-27T05:58:01.457Z,5.44
2023-01-27T06:00:28.079Z,5.46
2023-01-27T06:02:54.784Z,5.38
2023-01-27T06:05:21.429Z,5.38
2023-01-27T06:07:48.103Z,5.51
2023-01-27T06:10:14.775Z,5.43
2023-01-27T06:12:41.432Z,5.57
2023-01-27T06:15:08.494Z,5.63
2023-01-27T06:17:35.251Z,5.66
2023-01-27T06:20:01.904Z,5.81
2023-01-27T06:22:28.608Z,5.86
2023-01-27T06:24:55.258Z,5.91
2023-01-27T06:27:21.884Z,5.96
2023-01-27T06:29:48.508Z,5.91
2023-01-27T06:32:16.563Z,5.95
2023-01-27T06:34:43.180Z,5.78
2023-01-27T06:37:10.192Z,5.85
2023-01-27T06:39:36.830Z,5.79
2023-01-27T06:42:04.818Z,5.75
2023-01-27T06:44:31.425Z,5.84
2023-01-27T06:46:58.095Z,5.74
2023-01-27T06:49:24.793Z,5.87
2023-01-27T06:51:51.501Z,5.92
2023-01-27T06:54:19.680Z,5.91
2023-01-27T06:56:46.656Z,5.89
2023-01-27T06:59:13.270Z,5.91
2023-01-27T07:01:40.042Z,5.98
2023-01-27T07:04:06.722Z,5.94
2023-01-27T07:06:33.393Z,5.94
2023-01-27T07:08:59.973Z,6.04
2023-01-27T07:11:26.649Z,5.94
2023-01-27T07:13:53.335Z,5.92
2023-01-27T07:16:20.102Z,5.94
2023-01-27T07:18:46.750Z,6.03
2023-01-27T07:21:13.403Z,5.91
2023-01-27T07:23:42.315Z,5.93
2023-01-27T07:26:23.251Z,6.00
2023-01-27T07:28:51.120Z,6.02
2023-01-27T07:31:17.860Z,5.98
2023-01-27T07:33:44.905Z,5.97
2023-01-27T07:36:11.602Z,6.06
2023-01-27T07:38:39.054Z,6.04
2023-01-27T07:41:06.569Z,6.07
2023-01-27T07:43:33.850Z,6.08
2023-01-27T07:46:00.873Z,6.00
2023-01-27T07:48:27.680Z,5.91
2023-01-27T07:50:54.438Z,6.01
2023-01-27T07:53:21.075Z,5.98
2023-01-27T07:55:47.753Z,5.94
2023-01-27T07:58:14.496Z,6.00
2023-01-27T08:00:41.266Z,5.93
2023-01-27T08:03:08.427Z,5.96
2023-01-27T08:05:35.335Z,6.10
2023-01-27T08:08:04.518Z,6.27
2023-01-27T08:10:31.797Z,6.27
2023-01-27T08:12:58.557Z,6.33
2023-01-27T08:15:25.233Z,6.30
2023-01-27T08:17:55.775Z,6.24
2023-01-27T08:20:24.195Z,6.19
2023-01-27T08:22:50.847Z,6.79
2023-01-27T08:25:17.517Z,7.09
2023-01-27T08:27:44.369Z,6.92
2023-01-27T08:30:11.695Z,7.42
2023-01-27T08:32:38.576Z,7.66
2023-01-27T08:35:05.360Z,7.54
2023-01-27T08:37:31.938Z,7.46
2023-01-27T08:39:59.967Z,7.69
2023-01-27T08:42:26.625Z,7.48
2023-01-27T08:44:53.319Z,7.56
2023-01-27T08:47:19.968Z,7.67
2023-01-27T08:49:47.950Z,7.66
2023-01-27T08:52:14.568Z,7.52
2023-01-27T08:54:41.338Z,7.74
2023-01-27T08:57:08.075Z,7.80
2023-01-27T08:59:34.710Z,7.86
2023-01-27T09:02:01.314Z,7.88
2023-01-27T09:04:30.211Z,8.16
2023-01-27T09:06:56.944Z,8.03
2023-01-27T09:09:23.684Z,8.22
2023-01-27T09:11:50.321Z,8.44
2023-01-27T09:14:17.010Z,8.32
2023-01-27T09:16:43.647Z,8.35
2023-01-27T09:19:10.408Z,8.23
2023-01-27T09:21:37.014Z,8.30
2023-01-27T09:24:03.795Z,8.25
2023-01-27T09:26:30.436Z,8.25
2023-01-27T09:28:57.142Z,8.24
2023-01-27T09:31:23.977Z,8.31
2023-01-27T09:33:50.797Z,7.98
2023-01-27T09:36:19.007Z,8.20
2023-01-27T09:38:52.200Z,8.13
2023-01-27T09:41:37.659Z,8.21
2023-01-27T09:44:15.726Z,8.21
2023-01-27T09:46:42.533Z,8.05
2023-01-27T09:49:12.334Z,7.94
2023-01-27T09:51:41.780Z,8.23
2023-01-27T09:54:23.433Z,8.23
2023-01-27T09:56:53.614Z,8.18
2023-01-27T09:59:30.013Z,8.30
2023-01-27T10:02:35.284Z,8.47
2023-01-27T10:05:20.317Z,8.51
2023-01-27T10:07:55.975Z,8.54
2023-01-27T10:10:41.038Z,8.37
2023-01-27T10:13:10.495Z,8.50
2023-01-27T10:15:45.173Z,8.65
2023-01-27T10:18:11.857Z,8.89
2023-01-27T10:20:44.749Z,9.01
2023-01-27T10:23:25.519Z,8.94
2023-01-27T10:25:52.554Z,8.93
2023-01-27T10:28:22.628Z,9.00
2023-01-27T10:30:56.011Z,8.90
2023-01-27T10:33:28.653Z,8.88
2023-01-27T10:35:59.559Z,8.69
2023-01-27T10:38:34.955Z,8.80
2023-01-27T10:41:04.447Z,8.63
2023-01-27T10:43:39.350Z,8.63
2023-01-27T10:46:16.680Z,8.73
2023-01-27T10:48:49.885Z,8.86
2023-01-27T10:51:31.348Z,8.87
2023-01-27T10:54:12.444Z,8.90
2023-01-27T10:56:45.520Z,9.03
2023-01-27T10:59:23.919Z,9.27
2023-01-27T11:01:53.327Z,9.26
2023-01-27T11:04:26.105Z,9.19
2023-01-27T11:06:54.145Z,9.13
2023-01-27T11:09:22.964Z,9.32
2023-01-27T11:11:51.367Z,9.41
2023-01-27T11:14:32.542Z,9.35
2023-01-27T11:17:15.866Z,9.20
2023-01-27T11:19:50.988Z,9.40
2023-01-27T11:22:20.886Z,9.47
2023-01-27T11:24:50.051Z,9.44
2023-01-27T11:27:27.082Z,9.52
2023-01-27T11:30:04.325Z,9.56
2023-01-27T11:32:39.918Z,9.52
2023-01-27T11:35:10.331Z,9.68
2023-01-27T11:37:44.206Z,9.80
2023-01-27T11:40:16.323Z,9.87
2023-01-27T11:42:43.359Z,9.79
2023-01-27T11:45:16.995Z,9.89
2023-01-27T11:47:44.481Z,9.87
2023-01-27T11:50:15.634Z,9.87
2023-01-27T11:52:43.231Z,9.80
2023-01-27T11:55:16.837Z,9.76
2023-01-27T11:57:46.675Z,9.82
2023-01-27T12:00:13.732Z,9.75
2023-01-27T12:02:46.250Z,9.81
2023-01-27T12:05:14.567Z,9.94
2023-01-27T12:07:50.157Z,10.04
2023-01-27T12:10:24.686Z,10.09
2023-01-27T12:12:58.821Z,10.12
2023-01-27T12:15:29.614Z,10.25
2023-01-27T12:17:59.577Z,10.40
2023-01-27T12:20:35.075Z,10.56
2023-01-27T12:23:14.322Z,10.78
2023-01-27T12:25:49.623Z,10.99
2023-01-27T12:28:37.517Z,11.09
2023-01-27T12:31:12.150Z,11.16
2023-01-27T12:33:41.628Z,11.23
2023-01-27T12:36:11.325Z,11.38
2023-01-27T12:38:38.071Z,11.40
2023-01-27T12:41:06.250Z,11.41
2023-01-27T12:43:50.047Z,11.55
2023-01-27T12:46:22.796Z,11.63
2023-01-27T12:48:53.716Z,11.84
2023-01-27T12:51:22.167Z,11.88
2023-01-27T12:53:49.846Z,11.88
2023-01-27T12:56:22.090Z,12.01
2023-01-27T12:58:54.785Z,12.18
2023-01-27T13:01:30.276Z,12.25
2023-01-27T13:04:01.149Z,12.39
2023-01-27T13:06:33.965Z,12.52
2023-01-27T13:09:01.728Z,12.41
2023-01-27T13:11:34.564Z,12.37
2023-01-27T13:14:01.253Z,12.58
2023-01-27T13:16:29.435Z,12.70
2023-01-27T13:18:57.853Z,12.74
2023-01-27T13:21:26.956Z,12.65
2023-01-27T13:23:54.417Z,12.61
2023-01-27T13:26:33.632Z,12.48
2023-01-27T13:29:00.449Z,12.62
2023-01-27T13:31:34.202Z,12.43
2023-01-27T13:34:05.414Z,12.32
2023-01-27T13:36:43.522Z,12.19
2023-01-27T13:39:16.261Z,12.05
2023-01-27T13:41:45.951Z,11.99
2023-01-27T13:44:21.628Z,11.93
2023-01-27T13:46:49.805Z,11.88
2023-01-27T13:49:32.071Z,11.95
2023-01-27T13:51:58.751Z,11.75
2023-01-27T13:54:25.480Z,11.65
2023-01-27T13:56:58.348Z,11.80
2023-01-27T13:59:27.986Z,11.90
2023-01-27T14:01:54.736Z,12.00
2023-01-27T14:04:32.681Z,12.16
2023-01-27T14:07:15.104Z,12.22
2023-01-27T14:09:49.401Z,12.34
2023-01-27T14:12:24.855Z,12.38
2023-01-27T14:15:08.673Z,12.41
2023-01-27T14:17:35.488Z,12.35
2023-01-27T14:20:07.943Z,12.35
2023-01-27T14:22:44.029Z,12.31
2023-01-27T14:25:32.613Z,12.27
2023-01-27T14:28:10.920Z,12.26
2023-01-27T14:30:45.084Z,12.34
2023-01-27T14:33:17.607Z,12.38
2023-01-27T14:35:50.030Z,12.41
2023-01-27T14:38:28.687Z,12.41
2023-01-27T14:41:01.135Z,12.25
2023-01-27T14:43:30.705Z,12.24
2023-01-27T14:46:08.951Z,12.23
2023-01-27T14:48:38.418Z,12.23
2023-01-27T14:51:12.549Z,12.29
2023-01-27T14:53:57.371Z,12.31
2023-01-27T14:56:32.096Z,12.24
2023-01-27T14:59:16.623Z,12.32
2023-01-27T15:01:49.232Z,12.30
2023-01-27T15:04:19.001Z,12.33
2023-01-27T15:07:09.260Z,12.27
2023-01-27T15:09:40.872Z,12.27
2023-01-27T15:12:25.732Z,12.19
2023-01-27T15:14:54.380Z,12.19
2023-01-27T15:17:20.984Z,12.16
2023-01-27T15:20:06.584Z,12.17
2023-01-27T15:22:39.829Z,12.13
2023-01-27T15:25:29.895Z,12.03
2023-01-27T15:27:57.594Z,12.04
2023-01-27T15:30:26.488Z,12.00
2023-01-27T15:32:53.482Z,11.93
2023-01-27T15:35:28.026Z,11.92
2023-01-27T15:38:08.556Z,11.84
2023-01-27T15:40:53.925Z,11.75
2023-01-27T15:43:23.399Z,11.78
2023-01-27T15:45:54.349Z,11.78
2023-01-27T15:48:28.526Z,11.79
2023-01-27T15:50:59.464Z,11.78
2023-01-27T15:53:36.192Z,11.72
2023-01-27T15:56:03.760Z,11.70
2023-01-27T15:58:36.396Z,11.74
2023-01-27T16:01:05.353Z,11.69
2023-01-27T16:03:35.237Z,11.65
2023-01-27T16:06:12.206Z,11.69
2023-01-27T16:08:41.569Z,11.67
2023-01-27T16:11:26.566Z,11.61
2023-01-27T16:14:13.658Z,11.62
2023-01-27T16:16:41.796Z,11.64
2023-01-27T16:19:11.345Z,11.56
2023-01-27T16:21:40.844Z,11.58
2023-01-27T16:24:27.770Z,11.63
2023-01-27T16:27:06.700Z,11.60
2023-01-27T16:29:46.267Z,11.56
2023-01-27T16:32:20.692Z,11.57
2023-01-27T16:34:56.125Z,11.55
2023-01-27T16:37:25.075Z,11.51
2023-01-27T16:39:54.874Z,11.51
2023-01-27T16:42:28.465Z,11.51
2023-01-27T16:44:57.306Z,11.53
2023-01-27T16:47:26.347Z,11.52
2023-01-27T16:49:56.059Z,11.49
2023-01-27T16:52:40.845Z,11.45
2023-01-27T16:55:19.397Z,11.46
2023-01-27T16:57:46.042Z,11.47
2023-01-27T17:00:23.180Z,11.48
2023-01-27T17:02:51.515Z,11.45
2023-01-27T17:05:19.337Z,11.45
2023-01-27T17:08:03.972Z,11.44
2023-01-27T17:10:34.807Z,11.41
2023-01-27T17:13:03.573Z,11.40
2023-01-27T17:15:37.930Z,11.39
2023-01-27T17:18:09.628Z,11.36
2023-01-27T17:20:38.343Z,11.35
2023-01-27T17:23:05.817Z,11.34
2023-01-27T17:25:34.883Z,11.35
2023-01-27T17:28:03.374Z,11.32
2023-01-27T17:30:34.878Z,11.33
2023-01-27T17:33:02.809Z,11.30
2023-01-27T17:35:36.975Z,11.30
2023-01-27T17:38:07.741Z,11.29
2023-01-27T17:40:38.652Z,11.27
2023-01-27T17:43:24.101Z,11.15
2023-01-27T17:46:01.728Z,11.20
2023-01-27T17:48:28.387Z,11.20
2023-01-27T17:50:55.014Z,11.18
2023-01-27T17:53:24.785Z,11.20
2023-01-27T17:55:52.312Z,11.21
2023-01-27T17:58:22.625Z,11.20
2023-01-27T18:00:49.314Z,11.21
2023-01-27T18:03:20.151Z,11.19
2023-01-27T18:05:48.629Z,11.15
2023-01-27T18:08:15.251Z,11.13
2023-01-27T18:10:45.840Z,11.11
2023-01-27T18:13:14.072Z,11.07
2023-01-27T18:15:42.635Z,11.05
2023-01-27T18:18:27.675Z,10.99
2023-01-27T18:20:57.138Z,10.92
2023-01-27T18:23:28.493Z,10.89
2023-01-27T18:26:02.168Z,10.87
2023-01-27T18:28:32.549Z,10.84
2023-01-27T18:30:59.354Z,10.83
2023-01-27T18:33:25.986Z,10.84
2023-01-27T18:35:57.120Z,10.78
2023-01-27T18:38:27.668Z,10.80
2023-01-27T18:40:55.752Z,10.78
2023-01-27T18:43:22.392Z,10.79
2023-01-27T18:45:50.480Z,10.73
2023-01-27T18:48:17.589Z,10.69
2023-01-27T18:50:45.462Z,10.64
2023-01-27T18:53:16.572Z,10.65
2023-01-27T18:55:43.496Z,10.64
2023-01-27T18:58:13.282Z,10.65
2023-01-27T19:00:48.159Z,10.59
2023-01-27T19:03:17.871Z,10.53
2023-01-27T19:05:44.592Z,10.47
2023-01-27T19:08:15.586Z,10.37
2023-01-27T19:10:42.295Z,10.40
2023-01-27T19:13:09.646Z,10.33
2023-01-27T19:15:41.567Z,10.33
2023-01-27T19:18:24.985Z,10.36
2023-01-27T19:20:53.182Z,10.32
2023-01-27T19:23:20.166Z,10.37
2023-01-27T19:25:48.115Z,10.34
2023-01-27T19:28:21.267Z,10.39
2023-01-27T19:30:47.935Z,10.35
2023-01-27T19:33:19.069Z,10.22
2023-01-27T19:35:48.016Z,10.15
2023-01-27T19:38:14.639Z,10.20
2023-01-27T19:40:41.683Z,10.19
2023-01-27T19:43:10.266Z,10.22
2023-01-27T19:45:36.961Z,9.89
2023-01-27T19:48:03.723Z,10.00
2023-01-27T19:50:30.910Z,10.02
2023-01-27T19:52:58.358Z,10.07
2023-01-27T19:55:25.599Z,10.10
2023-01-27T19:57:52.991Z,10.11
2023-01-27T20:00:27.486Z,9.90
2023-01-27T20:02:54.573Z,9.87
2023-01-27T20:05:22.324Z,9.90
2023-01-27T20:07:49.325Z,9.94
2023-01-27T20:10:23.721Z,9.95
2023-01-27T20:12:54.566Z,9.95
2023-01-27T20:15:24.257Z,9.95
2023-01-27T20:17:54.529Z,9.92
2023-01-27T20:20:21.946Z,9.91
2023-01-27T20:22:48.723Z,9.91
2023-01-27T20:25:16.510Z,9.89
2023-01-27T20:27:44.066Z,9.84
2023-01-27T20:30:21.624Z,9.63
2023-01-27T20:32:48.396Z,9.69
2023-01-27T20:35:16.500Z,9.56
2023-01-27T20:37:43.654Z,9.58
2023-01-27T20:40:12.745Z,9.60
2023-01-27T20:42:39.411Z,9.48
2023-01-27T20:45:06.630Z,9.44
2023-01-27T20:47:33.502Z,9.48
2023-01-27T20:50:00.148Z,9.45
2023-01-27T20:52:26.989Z,9.44
2023-01-27T20:54:53.615Z,9.42
2023-01-27T20:57:22.165Z,9.34
2023-01-27T20:59:49.047Z,9.20
2023-01-27T21:02:16.462Z,9.11
2023-01-27T21:04:43.107Z,8.98
2023-01-27T21:07:09.751Z,8.93
2023-01-27T21:09:36.484Z,8.94
2023-01-27T21:12:03.228Z,8.98
2023-01-27T21:14:29.921Z,8.96
2023-01-27T21:16:56.698Z,8.93
2023-01-27T21:19:23.461Z,8.92
2023-01-27T21:21:50.181Z,8.81
2023-01-27T21:24:16.824Z,8.53
2023-01-27T21:26:43.497Z,8.34
2023-01-27T21:29:11.457Z,8.17
2023-01-27T21:31:40.159Z,8.38
2023-01-27T21:34:06.816Z,8.52
2023-01-27T21:36:33.409Z,8.32
2023-01-27T21:39:02.390Z,8.31
2023-01-27T21:41:47.736Z,8.49
2023-01-27T21:44:40.690Z,8.48
2023-01-27T21:47:08.943Z,8.27
2023-01-27T21:49:56.332Z,8.31
2023-01-27T21:52:23.865Z,8.29
2023-01-27T21:54:50.503Z,8.15
2023-01-27T21:57:19.157Z,8.15
2023-01-27T21:59:45.997Z,7.96
2023-01-27T22:02:13.579Z,8.02
2023-01-27T22:04:41.066Z,8.15
2023-01-27T22:07:10.009Z,8.28
2023-01-27T22:09:37.296Z,8.31
2023-01-27T22:12:08.458Z,8.38
2023-01-27T22:14:35.230Z,8.40
2023-01-27T22:17:02.027Z,8.43
2023-01-27T22:19:29.385Z,8.34
2023-01-27T22:21:56.089Z,8.28
2023-01-27T22:24:22.766Z,8.33
2023-01-27T22:26:49.458Z,8.30
2023-01-27T22:29:16.162Z,8.26
2023-01-27T22:31:42.772Z,8.33
2023-01-27T22:34:09.579Z,8.31
2023-01-27T22:36:36.631Z,8.38
2023-01-27T22:39:04.219Z,8.22
2023-01-27T22:41:31.587Z,8.23
2023-01-27T22:43:58.294Z,8.17
2023-01-27T22:46:24.911Z,8.09
2023-01-27T22:48:51.617Z,7.96
2023-01-27T22:51:18.399Z,7.95
2023-01-27T22:53:46.104Z,7.88
2023-01-27T22:56:12.752Z,7.79
2023-01-27T22:58:39.426Z,7.92
2023-01-27T23:01:06.908Z,7.87
2023-01-27T23:03:33.981Z,7.92
2023-01-27T23:06:04.276Z,7.93
2023-01-27T23:08:32.528Z,7.75
2023-01-27T23:11:01.375Z,7.77
2023-01-27T23:13:28.952Z,7.81
2023-01-27T23:15:55.574Z,7.69
2023-01-27T23:18:22.502Z,7.74
2023-01-27T23:20:49.113Z,7.47
2023-01-27T23:23:16.082Z,7.38
2023-01-27T23:25:46.002Z,7.15
2023-01-27T23:28:13.645Z,7.22
2023-01-27T23:30:44.178Z,7.22
2023-01-27T23:33:11.798Z,7.23
2023-01-27T23:35:38.700Z,7.06
2023-01-27T23:38:10.527Z,7.16
2023-01-27T23:40:40.792Z,7.04
2023-01-27T23:43:07.397Z,7.16
2023-01-27T23:45:34.165Z,7.00
2023-01-27T23:48:00.826Z,6.99
2023-01-27T23:50:27.472Z,6.96
2023-01-27T23:52:54.097Z,6.91
2023-01-27T23:55:20.840Z,7.04
2023-01-27T23:57:47.428Z,6.97
